sensor_id;sensor_type;location;lat;lon;timestamp;pressure;altitude;pressure_sealevel;temperature;humidity
73981;BME280;62348;51.412;5.436;2022-11-13T00:01:25;102535.72;;;6.22;90.53
73981;BME280;62348;51.412;5.436;2022-11-13T00:03:51;102535.31;;;6.25;89.45
73981;BME280;62348;51.412;5.436;2022-11-13T00:06:17;102529.13;;;6.25;89.52
73981;BME280;62348;51.412;5.436;2022-11-13T00:08:43;102525.44;;;6.26;89.49
73981;BME280;62348;51.412;5.436;2022-11-13T00:11:19;102535.50;;;6.24;89.39
73981;BME280;62348;51.412;5.436;2022-11-13T00:13:46;102526.44;;;6.25;89.50
73981;BME280;62348;51.412;5.436;2022-11-13T00:16:17;102528.31;;;6.24;89.21
73981;BME280;62348;51.412;5.436;2022-11-13T00:18:43;102520.81;;;6.20;88.82
73981;BME280;62348;51.412;5.436;2022-11-13T00:21:12;102520.97;;;6.18;88.84
73981;BME280;62348;51.412;5.436;2022-11-13T00:23:39;102523.66;;;6.18;88.82
73981;BME280;62348;51.412;5.436;2022-11-13T00:26:23;102520.34;;;6.16;88.59
73981;BME280;62348;51.412;5.436;2022-11-13T00:28:53;102521.94;;;6.11;88.59
73981;BME280;62348;51.412;5.436;2022-11-13T00:31:19;102511.00;;;6.12;88.82
73981;BME280;62348;51.412;5.436;2022-11-13T00:33:45;102509.72;;;6.08;88.33
73981;BME280;62348;51.412;5.436;2022-11-13T00:36:15;102511.31;;;6.02;88.91
73981;BME280;62348;51.412;5.436;2022-11-13T00:38:41;102501.16;;;5.98;88.71
73981;BME280;62348;51.412;5.436;2022-11-13T00:41:06;102500.13;;;5.99;88.52
73981;BME280;62348;51.412;5.436;2022-11-13T00:43:32;102487.09;;;5.96;88.82
73981;BME280;62348;51.412;5.436;2022-11-13T00:45:57;102498.19;;;5.93;88.05
73981;BME280;62348;51.412;5.436;2022-11-13T00:48:22;102500.03;;;5.92;88.51
73981;BME280;62348;51.412;5.436;2022-11-13T00:50:48;102489.06;;;5.94;88.40
73981;BME280;62348;51.412;5.436;2022-11-13T00:53:14;102486.34;;;5.87;88.08
73981;BME280;62348;51.412;5.436;2022-11-13T00:55:41;102488.75;;;5.82;88.09
73981;BME280;62348;51.412;5.436;2022-11-13T00:58:07;102484.41;;;5.81;88.11
73981;BME280;62348;51.412;5.436;2022-11-13T01:00:33;102484.78;;;5.78;87.88
73981;BME280;62348;51.412;5.436;2022-11-13T01:02:59;102482.47;;;5.75;87.78
73981;BME280;62348;51.412;5.436;2022-11-13T01:05:25;102484.13;;;5.76;88.06
73981;BME280;62348;51.412;5.436;2022-11-13T01:07:50;102486.00;;;5.75;88.09
73981;BME280;62348;51.412;5.436;2022-11-13T01:10:16;102486.53;;;5.71;87.82
73981;BME280;62348;51.412;5.436;2022-11-13T01:12:41;102489.88;;;5.73;87.94
73981;BME280;62348;51.412;5.436;2022-11-13T01:15:07;102481.75;;;5.66;88.02
73981;BME280;62348;51.412;5.436;2022-11-13T01:17:33;102484.03;;;5.69;87.79
73981;BME280;62348;51.412;5.436;2022-11-13T01:19:58;102481.13;;;5.64;88.01
73981;BME280;62348;51.412;5.436;2022-11-13T01:22:24;102474.06;;;5.63;87.76
73981;BME280;62348;51.412;5.436;2022-11-13T01:24:49;102472.78;;;5.59;87.72
73981;BME280;62348;51.412;5.436;2022-11-13T01:27:15;102465.56;;;5.59;87.86
73981;BME280;62348;51.412;5.436;2022-11-13T01:29:40;102468.00;;;5.54;87.48
73981;BME280;62348;51.412;5.436;2022-11-13T01:32:06;102470.47;;;5.56;88.05
73981;BME280;62348;51.412;5.436;2022-11-13T01:34:31;102471.69;;;5.53;87.73
73981;BME280;62348;51.412;5.436;2022-11-13T01:36:57;102472.72;;;5.52;88.20
73981;BME280;62348;51.412;5.436;2022-11-13T01:39:22;102478.25;;;5.51;87.94
73981;BME280;62348;51.412;5.436;2022-11-13T01:41:47;102470.03;;;5.52;88.12
73981;BME280;62348;51.412;5.436;2022-11-13T01:44:14;102465.84;;;5.50;87.74
73981;BME280;62348;51.412;5.436;2022-11-13T01:46:42;102467.53;;;5.51;87.44
73981;BME280;62348;51.412;5.436;2022-11-13T01:51:41;102456.88;;;5.42;88.11
73981;BME280;62348;51.412;5.436;2022-11-13T01:54:15;102459.56;;;5.42;88.19
73981;BME280;62348;51.412;5.436;2022-11-13T01:56:42;102449.03;;;5.41;88.10
73981;BME280;62348;51.412;5.436;2022-11-13T01:59:13;102452.91;;;5.38;87.92
73981;BME280;62348;51.412;5.436;2022-11-13T02:01:40;102434.78;;;5.40;87.67
73981;BME280;62348;51.412;5.436;2022-11-13T02:04:06;102433.31;;;5.38;87.99
73981;BME280;62348;51.412;5.436;2022-11-13T02:06:40;102437.69;;;5.39;88.00
73981;BME280;62348;51.412;5.436;2022-11-13T02:09:07;102438.88;;;5.36;87.71
73981;BME280;62348;51.412;5.436;2022-11-13T02:11:33;102432.41;;;5.31;87.52
73981;BME280;62348;51.412;5.436;2022-11-13T02:14:01;102429.88;;;5.29;87.81
73981;BME280;62348;51.412;5.436;2022-11-13T02:16:29;102428.88;;;5.30;87.46
73981;BME280;62348;51.412;5.436;2022-11-13T02:18:56;102426.97;;;5.24;87.31
73981;BME280;62348;51.412;5.436;2022-11-13T02:21:30;102417.69;;;5.26;87.74
73981;BME280;62348;51.412;5.436;2022-11-13T02:26:33;102415.78;;;5.20;87.38
73981;BME280;62348;51.412;5.436;2022-11-13T02:29:01;102413.72;;;5.22;87.36
73981;BME280;62348;51.412;5.436;2022-11-13T02:31:26;102412.06;;;5.21;87.68
73981;BME280;62348;51.412;5.436;2022-11-13T02:33:52;102406.91;;;5.20;87.63
73981;BME280;62348;51.412;5.436;2022-11-13T02:36:19;102408.66;;;5.13;87.93
73981;BME280;62348;51.412;5.436;2022-11-13T02:38:46;102405.97;;;5.13;87.47
73981;BME280;62348;51.412;5.436;2022-11-13T02:41:12;102402.09;;;5.15;87.70
73981;BME280;62348;51.412;5.436;2022-11-13T02:43:37;102408.66;;;5.13;87.92
73981;BME280;62348;51.412;5.436;2022-11-13T02:46:02;102411.34;;;5.13;87.61
73981;BME280;62348;51.412;5.436;2022-11-13T02:48:28;102407.38;;;5.08;87.77
73981;BME280;62348;51.412;5.436;2022-11-13T02:50:54;102394.59;;;5.11;87.36
73981;BME280;62348;51.412;5.436;2022-11-13T02:53:19;102393.97;;;5.08;87.27
73981;BME280;62348;51.412;5.436;2022-11-13T02:55:45;102395.44;;;5.11;87.53
73981;BME280;62348;51.412;5.436;2022-11-13T02:58:10;102387.56;;;5.09;87.79
73981;BME280;62348;51.412;5.436;2022-11-13T03:00:36;102388.13;;;5.05;87.70
73981;BME280;62348;51.412;5.436;2022-11-13T03:03:01;102393.50;;;5.05;87.72
73981;BME280;62348;51.412;5.436;2022-11-13T03:05:26;102394.50;;;5.04;87.86
73981;BME280;62348;51.412;5.436;2022-11-13T03:07:52;102395.31;;;5.04;87.66
73981;BME280;62348;51.412;5.436;2022-11-13T03:10:18;102388.50;;;5.02;87.49
73981;BME280;62348;51.412;5.436;2022-11-13T03:12:43;102393.50;;;5.05;87.51
73981;BME280;62348;51.412;5.436;2022-11-13T03:15:09;102388.50;;;5.02;87.67
73981;BME280;62348;51.412;5.436;2022-11-13T03:17:34;102380.38;;;4.95;87.81
73981;BME280;62348;51.412;5.436;2022-11-13T03:20:00;102379.00;;;4.99;88.01
73981;BME280;62348;51.412;5.436;2022-11-13T03:22:26;102374.81;;;4.97;88.53
73981;BME280;62348;51.412;5.436;2022-11-13T03:24:52;102374.81;;;4.97;88.77
73981;BME280;62348;51.412;5.436;2022-11-13T03:27:18;102381.91;;;5.04;89.04
73981;BME280;62348;51.412;5.436;2022-11-13T03:29:43;102373.25;;;5.02;88.75
73981;BME280;62348;51.412;5.436;2022-11-13T03:32:09;102366.69;;;5.05;88.23
73981;BME280;62348;51.412;5.436;2022-11-13T03:34:34;102379.44;;;5.03;88.06
73981;BME280;62348;51.412;5.436;2022-11-13T03:36:59;102373.06;;;5.04;87.88
73981;BME280;62348;51.412;5.436;2022-11-13T03:39:25;102367.22;;;5.00;88.06
73981;BME280;62348;51.412;5.436;2022-11-13T03:41:50;102366.59;;;4.98;88.41
73981;BME280;62348;51.412;5.436;2022-11-13T03:44:15;102359.19;;;5.00;88.27
73981;BME280;62348;51.412;5.436;2022-11-13T03:46:41;102355.97;;;5.05;88.38
73981;BME280;62348;51.412;5.436;2022-11-13T03:49:06;102360.03;;;5.01;88.71
73981;BME280;62348;51.412;5.436;2022-11-13T03:51:32;102349.97;;;5.03;88.75
73981;BME280;62348;51.412;5.436;2022-11-13T03:53:57;102350.22;;;5.08;89.56
73981;BME280;62348;51.412;5.436;2022-11-13T03:56:24;102346.53;;;5.09;89.39
73981;BME280;62348;51.412;5.436;2022-11-13T03:58:49;102350.31;;;5.15;89.53
73981;BME280;62348;51.412;5.436;2022-11-13T04:01:15;102351.94;;;5.16;89.58
73981;BME280;62348;51.412;5.436;2022-11-13T04:03:40;102349.84;;;5.11;89.45
73981;BME280;62348;51.412;5.436;2022-11-13T04:06:06;102346.69;;;5.22;89.62
73981;BME280;62348;51.412;5.436;2022-11-13T04:08:31;102344.47;;;5.26;89.94
73981;BME280;62348;51.412;5.436;2022-11-13T04:11:07;102345.75;;;5.30;89.76
73981;BME280;62348;51.412;5.436;2022-11-13T04:13:33;102335.47;;;5.34;89.44
73981;BME280;62348;51.412;5.436;2022-11-13T04:15:58;102338.53;;;5.31;89.23
73981;BME280;62348;51.412;5.436;2022-11-13T04:18:23;102329.66;;;5.30;88.98
73981;BME280;62348;51.412;5.436;2022-11-13T04:20:49;102329.47;;;5.32;88.72
73981;BME280;62348;51.412;5.436;2022-11-13T04:23:14;102326.78;;;5.32;88.77
73981;BME280;62348;51.412;5.436;2022-11-13T04:25:42;102329.84;;;5.28;88.69
73981;BME280;62348;51.412;5.436;2022-11-13T04:28:08;102329.66;;;5.30;88.76
73981;BME280;62348;51.412;5.436;2022-11-13T04:30:34;102317.00;;;5.24;88.52
73981;BME280;62348;51.412;5.436;2022-11-13T04:32:59;102323.19;;;5.24;88.51
73981;BME280;62348;51.412;5.436;2022-11-13T04:35:25;102327.09;;;5.22;88.61
73981;BME280;62348;51.412;5.436;2022-11-13T04:37:50;102320.22;;;5.19;88.32
73981;BME280;62348;51.412;5.436;2022-11-13T04:40:16;102313.88;;;5.20;88.63
73981;BME280;62348;51.412;5.436;2022-11-13T04:42:41;102311.38;;;5.19;88.29
73981;BME280;62348;51.412;5.436;2022-11-13T04:45:13;102311.28;;;5.12;88.57
73981;BME280;62348;51.412;5.436;2022-11-13T04:47:38;102306.78;;;5.13;88.73
73981;BME280;62348;51.412;5.436;2022-11-13T04:50:04;102308.22;;;5.15;88.68
73981;BME280;62348;51.412;5.436;2022-11-13T04:52:30;102305.91;;;5.12;88.38
73981;BME280;62348;51.412;5.436;2022-11-13T04:54:55;102313.97;;;5.12;88.39
73981;BME280;62348;51.412;5.436;2022-11-13T04:57:21;102302.41;;;5.12;88.73
73981;BME280;62348;51.412;5.436;2022-11-13T04:59:46;102301.59;;;5.11;88.81
73981;BME280;62348;51.412;5.436;2022-11-13T05:02:12;102309.44;;;5.13;88.88
73981;BME280;62348;51.412;5.436;2022-11-13T05:04:37;102311.66;;;5.09;88.68
73981;BME280;62348;51.412;5.436;2022-11-13T05:07:02;102304.63;;;5.08;88.80
73981;BME280;62348;51.412;5.436;2022-11-13T05:09:28;102306.13;;;5.11;88.94
73981;BME280;62348;51.412;5.436;2022-11-13T05:11:53;102303.63;;;5.09;88.38
73981;BME280;62348;51.412;5.436;2022-11-13T05:14:19;102294.31;;;5.05;88.54
73981;BME280;62348;51.412;5.436;2022-11-13T05:16:44;102303.34;;;5.04;88.66
73981;BME280;62348;51.412;5.436;2022-11-13T05:19:10;102295.72;;;5.01;88.32
73981;BME280;62348;51.412;5.436;2022-11-13T05:21:36;102290.34;;;5.01;88.40
73981;BME280;62348;51.412;5.436;2022-11-13T05:24:03;102291.53;;;4.98;88.22
73981;BME280;62348;51.412;5.436;2022-11-13T05:26:29;102284.53;;;4.97;87.98
73981;BME280;62348;51.412;5.436;2022-11-13T05:28:59;102287.19;;;4.97;88.23
73981;BME280;62348;51.412;5.436;2022-11-13T05:31:25;102287.56;;;4.94;88.18
73981;BME280;62348;51.412;5.436;2022-11-13T05:33:51;102276.38;;;4.91;87.88
73981;BME280;62348;51.412;5.436;2022-11-13T05:36:17;102282.78;;;4.89;87.58
73981;BME280;62348;51.412;5.436;2022-11-13T05:38:44;102283.97;;;4.87;87.54
73981;BME280;62348;51.412;5.436;2022-11-13T05:41:17;102276.31;;;4.84;87.61
73981;BME280;62348;51.412;5.436;2022-11-13T05:43:44;102272.53;;;4.78;87.77
73981;BME280;62348;51.412;5.436;2022-11-13T05:46:18;102270.03;;;4.77;87.35
73981;BME280;62348;51.412;5.436;2022-11-13T05:48:44;102265.88;;;4.74;87.58
73981;BME280;62348;51.412;5.436;2022-11-13T05:51:12;102281.75;;;4.76;87.82
73981;BME280;62348;51.412;5.436;2022-11-13T05:53:38;102283.81;;;4.74;87.12
73981;BME280;62348;51.412;5.436;2022-11-13T05:56:10;102287.53;;;4.73;87.62
73981;BME280;62348;51.412;5.436;2022-11-13T05:58:35;102283.53;;;4.68;87.06
73981;BME280;62348;51.412;5.436;2022-11-13T06:03:46;102280.78;;;4.62;86.82
73981;BME280;62348;51.412;5.436;2022-11-13T06:06:17;102278.84;;;4.56;87.18
73981;BME280;62348;51.412;5.436;2022-11-13T06:08:43;102269.13;;;4.55;87.02
73981;BME280;62348;51.412;5.436;2022-11-13T06:11:11;102275.69;;;4.52;86.72
73981;BME280;62348;51.412;5.436;2022-11-13T06:13:37;102266.38;;;4.48;86.66
73981;BME280;62348;51.412;5.436;2022-11-13T06:16:09;102265.28;;;4.42;86.75
73981;BME280;62348;51.412;5.436;2022-11-13T06:18:35;102265.44;;;4.41;86.92
73981;BME280;62348;51.412;5.436;2022-11-13T06:21:02;102265.34;;;4.34;86.59
73981;BME280;62348;51.412;5.436;2022-11-13T06:23:31;102257.53;;;4.33;86.89
73981;BME280;62348;51.412;5.436;2022-11-13T06:26:07;102262.19;;;4.30;86.96
73981;BME280;62348;51.412;5.436;2022-11-13T06:28:33;102260.56;;;4.29;86.82
73981;BME280;62348;51.412;5.436;2022-11-13T06:31:04;102261.75;;;4.27;86.87
73981;BME280;62348;51.412;5.436;2022-11-13T06:33:30;102260.00;;;4.19;86.17
73981;BME280;62348;51.412;5.436;2022-11-13T06:35:56;102258.34;;;4.18;86.57
73981;BME280;62348;51.412;5.436;2022-11-13T06:38:21;102250.66;;;4.15;86.39
73981;BME280;62348;51.412;5.436;2022-11-13T06:40:47;102246.84;;;4.09;86.66
73981;BME280;62348;51.412;5.436;2022-11-13T06:43:12;102248.72;;;4.09;85.97
73981;BME280;62348;51.412;5.436;2022-11-13T06:45:37;102246.22;;;4.07;86.38
73981;BME280;62348;51.412;5.436;2022-11-13T06:48:03;102247.25;;;4.06;86.39
73981;BME280;62348;51.412;5.436;2022-11-13T06:50:28;102256.28;;;4.05;86.92
73981;BME280;62348;51.412;5.436;2022-11-13T06:52:54;102254.16;;;4.01;86.53
73981;BME280;62348;51.412;5.436;2022-11-13T06:55:19;102252.31;;;4.01;87.03
73981;BME280;62348;51.412;5.436;2022-11-13T06:57:44;102249.53;;;3.95;86.37
73981;BME280;62348;51.412;5.436;2022-11-13T07:00:10;102245.84;;;3.96;86.29
73981;BME280;62348;51.412;5.436;2022-11-13T07:02:36;102243.34;;;3.94;86.46
73981;BME280;62348;51.412;5.436;2022-11-13T07:05:01;102245.53;;;3.90;86.19
73981;BME280;62348;51.412;5.436;2022-11-13T07:07:27;102246.41;;;3.91;86.84
73981;BME280;62348;51.412;5.436;2022-11-13T07:09:52;102252.75;;;3.90;86.36
73981;BME280;62348;51.412;5.436;2022-11-13T07:12:18;102244.72;;;3.90;86.61
73981;BME280;62348;51.412;5.436;2022-11-13T07:14:43;102247.75;;;3.87;86.67
73981;BME280;62348;51.412;5.436;2022-11-13T07:17:09;102246.75;;;3.88;86.73
73981;BME280;62348;51.412;5.436;2022-11-13T07:19:34;102236.41;;;3.85;86.95
73981;BME280;62348;51.412;5.436;2022-11-13T07:21:59;102235.94;;;3.81;87.19
73981;BME280;62348;51.412;5.436;2022-11-13T07:24:25;102241.09;;;3.83;87.00
73981;BME280;62348;51.412;5.436;2022-11-13T07:26:50;102239.47;;;3.82;86.59
73981;BME280;62348;51.412;5.436;2022-11-13T07:29:15;102226.91;;;3.82;86.91
73981;BME280;62348;51.412;5.436;2022-11-13T07:31:41;102224.22;;;3.82;86.67
73981;BME280;62348;51.412;5.436;2022-11-13T07:34:06;102226.06;;;3.82;87.33
73981;BME280;62348;51.412;5.436;2022-11-13T07:36:31;102222.56;;;3.81;86.88
73981;BME280;62348;51.412;5.436;2022-11-13T07:38:57;102224.41;;;3.81;87.26
73981;BME280;62348;51.412;5.436;2022-11-13T07:41:22;102227.47;;;3.78;87.40
73981;BME280;62348;51.412;5.436;2022-11-13T07:43:48;102226.72;;;3.84;87.10
73981;BME280;62348;51.412;5.436;2022-11-13T07:46:13;102232.06;;;3.84;87.65
73981;BME280;62348;51.412;5.436;2022-11-13T07:48:38;102225.69;;;3.85;87.05
73981;BME280;62348;51.412;5.436;2022-11-13T07:51:04;102222.31;;;3.91;87.53
73981;BME280;62348;51.412;5.436;2022-11-13T07:53:29;102221.09;;;3.94;87.66
73981;BME280;62348;51.412;5.436;2022-11-13T07:55:55;102219.63;;;3.91;87.74
73981;BME280;62348;51.412;5.436;2022-11-13T07:58:20;102217.50;;;4.01;88.68
73981;BME280;62348;51.412;5.436;2022-11-13T08:00:45;102221.19;;;4.00;88.84
73981;BME280;62348;51.412;5.436;2022-11-13T08:03:13;102215.94;;;4.07;89.05
73981;BME280;62348;51.412;5.436;2022-11-13T08:05:39;102218.75;;;4.14;88.37
73981;BME280;62348;51.412;5.436;2022-11-13T08:08:06;102218.91;;;4.27;89.42
73981;BME280;62348;51.412;5.436;2022-11-13T08:10:31;102217.13;;;4.34;89.34
73981;BME280;62348;51.412;5.436;2022-11-13T08:13:03;102215.03;;;4.44;89.14
73981;BME280;62348;51.412;5.436;2022-11-13T08:15:29;102213.78;;;4.62;89.87
73981;BME280;62348;51.412;5.436;2022-11-13T08:17:55;102221.00;;;4.76;90.06
73981;BME280;62348;51.412;5.436;2022-11-13T08:20:22;102219.47;;;4.88;89.26
73981;BME280;62348;51.412;5.436;2022-11-13T08:22:48;102211.56;;;5.02;89.22
73981;BME280;62348;51.412;5.436;2022-11-13T08:25:13;102208.38;;;5.13;89.21
73981;BME280;62348;51.412;5.436;2022-11-13T08:27:39;102205.19;;;5.24;88.69
73981;BME280;62348;51.412;5.436;2022-11-13T08:30:05;102199.50;;;5.34;88.95
73981;BME280;62348;51.412;5.436;2022-11-13T08:32:30;102194.44;;;5.46;88.55
73981;BME280;62348;51.412;5.436;2022-11-13T08:34:56;102199.91;;;5.59;87.74
73981;BME280;62348;51.412;5.436;2022-11-13T08:37:21;102195.88;;;5.70;87.46
73981;BME280;62348;51.412;5.436;2022-11-13T08:39:46;102204.63;;;5.79;87.18
73981;BME280;62348;51.412;5.436;2022-11-13T08:42:12;102208.81;;;5.88;87.01
73981;BME280;62348;51.412;5.436;2022-11-13T08:44:37;102208.69;;;5.96;86.67
73981;BME280;62348;51.412;5.436;2022-11-13T08:47:02;102209.78;;;6.09;85.35
73981;BME280;62348;51.412;5.436;2022-11-13T08:49:28;102202.84;;;6.21;85.68
73981;BME280;62348;51.412;5.436;2022-11-13T08:51:53;102210.31;;;6.25;85.50
73981;BME280;62348;51.412;5.436;2022-11-13T08:54:19;102207.25;;;6.35;84.62
73981;BME280;62348;51.412;5.436;2022-11-13T08:56:47;102205.03;;;6.45;84.12
73981;BME280;62348;51.412;5.436;2022-11-13T08:59:13;102199.28;;;6.55;84.08
73981;BME280;62348;51.412;5.436;2022-11-13T09:01:38;102192.91;;;6.63;83.36
73981;BME280;62348;51.412;5.436;2022-11-13T09:04:04;102196.44;;;6.70;83.20
73981;BME280;62348;51.412;5.436;2022-11-13T09:06:29;102190.69;;;6.80;83.84
73981;BME280;62348;51.412;5.436;2022-11-13T09:08:55;102195.44;;;6.84;83.42
73981;BME280;62348;51.412;5.436;2022-11-13T09:11:21;102190.91;;;6.92;83.87
73981;BME280;62348;51.412;5.436;2022-11-13T09:13:47;102192.59;;;6.99;83.01
73981;BME280;62348;51.412;5.436;2022-11-13T09:16:12;102185.16;;;7.08;82.49
73981;BME280;62348;51.412;5.436;2022-11-13T09:18:38;102176.06;;;7.16;82.26
73981;BME280;62348;51.412;5.436;2022-11-13T09:21:03;102175.25;;;7.22;81.94
73981;BME280;62348;51.412;5.436;2022-11-13T09:23:29;102173.38;;;7.36;81.72
73981;BME280;62348;51.412;5.436;2022-11-13T09:25:54;102171.31;;;7.38;80.15
73981;BME280;62348;51.412;5.436;2022-11-13T09:28:20;102171.13;;;7.46;79.75
73981;BME280;62348;51.412;5.436;2022-11-13T09:30:45;102174.66;;;7.53;79.61
73981;BME280;62348;51.412;5.436;2022-11-13T09:33:11;102177.31;;;7.60;79.87
73981;BME280;62348;51.412;5.436;2022-11-13T09:35:41;102177.53;;;7.65;79.29
73981;BME280;62348;51.412;5.436;2022-11-13T09:38:09;102167.78;;;7.71;80.08
73981;BME280;62348;51.412;5.436;2022-11-13T09:40:55;102171.50;;;7.76;79.18
73981;BME280;62348;51.412;5.436;2022-11-13T09:46:06;102173.13;;;7.91;78.27
73981;BME280;62348;51.412;5.436;2022-11-13T09:48:37;102168.75;;;7.96;78.81
73981;BME280;62348;51.412;5.436;2022-11-13T09:51:16;102178.28;;;8.06;79.75
73981;BME280;62348;51.412;5.436;2022-11-13T09:53:42;102181.16;;;8.11;78.80
73981;BME280;62348;51.412;5.436;2022-11-13T09:58:44;102176.56;;;8.25;78.07
73981;BME280;62348;51.412;5.436;2022-11-13T10:01:23;102175.72;;;8.31;77.88
73981;BME280;62348;51.412;5.436;2022-11-13T10:03:56;102180.25;;;8.37;77.28
73981;BME280;62348;51.412;5.436;2022-11-13T10:06:44;102171.13;;;8.45;77.56
73981;BME280;62348;51.412;5.436;2022-11-13T10:09:48;102172.16;;;8.50;78.17
73981;BME280;62348;51.412;5.436;2022-11-13T10:12:17;102166.31;;;8.53;76.22
73981;BME280;62348;51.412;5.436;2022-11-13T10:14:46;102166.50;;;8.58;77.07
73981;BME280;62348;51.412;5.436;2022-11-13T10:17:27;102165.63;;;8.65;77.51
73981;BME280;62348;51.412;5.436;2022-11-13T10:20:00;102161.47;;;8.69;76.53
73981;BME280;62348;51.412;5.436;2022-11-13T10:25:22;102156.03;;;8.75;77.04
73981;BME280;62348;51.412;5.436;2022-11-13T10:27:56;102156.44;;;8.79;76.44
73981;BME280;62348;51.412;5.436;2022-11-13T10:30:22;102154.97;;;8.83;76.33
73981;BME280;62348;51.412;5.436;2022-11-13T10:32:48;102153.47;;;8.87;75.44
73981;BME280;62348;51.412;5.436;2022-11-13T10:35:36;102142.28;;;8.90;75.28
73981;BME280;62348;51.412;5.436;2022-11-13T10:38:15;102147.00;;;8.95;75.49
73981;BME280;62348;51.412;5.436;2022-11-13T10:40:42;102141.19;;;8.98;75.85
73981;BME280;62348;51.412;5.436;2022-11-13T10:43:20;102141.34;;;9.03;76.20
73981;BME280;62348;51.412;5.436;2022-11-13T10:46:01;102136.31;;;9.07;75.98
73981;BME280;62348;51.412;5.436;2022-11-13T10:48:35;102132.78;;;9.13;75.43
73981;BME280;62348;51.412;5.436;2022-11-13T10:53:46;102128.31;;;9.25;73.73
73981;BME280;62348;51.412;5.436;2022-11-13T10:58:44;102113.69;;;9.33;73.11
73981;BME280;62348;51.412;5.436;2022-11-13T11:01:21;102105.78;;;9.38;74.44
73981;BME280;62348;51.412;5.436;2022-11-13T11:03:50;102097.84;;;9.43;73.57
73981;BME280;62348;51.412;5.436;2022-11-13T11:06:16;102099.03;;;9.47;73.26
73981;BME280;62348;51.412;5.436;2022-11-13T11:08:41;102096.25;;;9.54;73.43
73981;BME280;62348;51.412;5.436;2022-11-13T11:11:13;102095.59;;;9.58;74.82
73981;BME280;62348;51.412;5.436;2022-11-13T11:14:16;102088.88;;;9.68;74.90
73981;BME280;62348;51.412;5.436;2022-11-13T11:16:45;102095.09;;;9.68;73.69
73981;BME280;62348;51.412;5.436;2022-11-13T11:19:12;102093.16;;;9.75;73.54
73981;BME280;62348;51.412;5.436;2022-11-13T11:21:41;102093.91;;;9.83;73.00
73981;BME280;62348;51.412;5.436;2022-11-13T11:24:17;102099.91;;;9.85;73.44
73981;BME280;62348;51.412;5.436;2022-11-13T11:32:22;102096.91;;;9.93;75.20
73981;BME280;62348;51.412;5.436;2022-11-13T11:35:03;102092.25;;;10.00;74.13
73981;BME280;62348;51.412;5.436;2022-11-13T11:37:38;102085.31;;;10.04;73.44
73981;BME280;62348;51.412;5.436;2022-11-13T11:40:47;102075.72;;;10.08;74.58
73981;BME280;62348;51.412;5.436;2022-11-13T11:43:24;102069.28;;;10.09;74.48
73981;BME280;62348;51.412;5.436;2022-11-13T11:45:53;102063.38;;;10.12;73.06
73981;BME280;62348;51.412;5.436;2022-11-13T11:48:25;102061.94;;;10.28;73.49
73981;BME280;62348;51.412;5.436;2022-11-13T11:51:06;102062.63;;;10.24;73.99
73981;BME280;62348;51.412;5.436;2022-11-13T11:56:36;102040.69;;;10.32;74.34
73981;BME280;62348;51.412;5.436;2022-11-13T12:09:47;102029.81;;;10.50;73.38
73981;BME280;62348;51.412;5.436;2022-11-13T12:20:28;102007.06;;;10.70;73.55
73981;BME280;62348;51.412;5.436;2022-11-13T12:26:03;101999.06;;;10.75;74.26
73981;BME280;62348;51.412;5.436;2022-11-13T12:28:46;101996.25;;;10.82;72.03
73981;BME280;62348;51.412;5.436;2022-11-13T12:36:32;101975.91;;;10.91;75.20
73981;BME280;62348;51.412;5.436;2022-11-13T12:39:30;101975.31;;;11.01;73.16
73981;BME280;62348;51.412;5.436;2022-11-13T12:42:20;101973.44;;;11.01;73.47
73981;BME280;62348;51.412;5.436;2022-11-13T12:45:12;101967.28;;;11.06;72.21
73981;BME280;62348;51.412;5.436;2022-11-13T12:47:40;101962.72;;;11.06;70.84
73981;BME280;62348;51.412;5.436;2022-11-13T12:50:30;101970.72;;;11.13;72.91
73981;BME280;62348;51.412;5.436;2022-11-13T12:52:59;101961.03;;;11.17;71.23
73981;BME280;62348;51.412;5.436;2022-11-13T12:55:30;101954.81;;;11.17;71.38
73981;BME280;62348;51.412;5.436;2022-11-13T13:00:55;101948.78;;;11.26;70.58
73981;BME280;62348;51.412;5.436;2022-11-13T13:03:35;101933.97;;;11.29;69.39
73981;BME280;62348;51.412;5.436;2022-11-13T13:17:19;101914.94;;;11.52;67.93
73981;BME280;62348;51.412;5.436;2022-11-13T13:19:56;101911.66;;;11.50;69.03
73981;BME280;62348;51.412;5.436;2022-11-13T13:22:31;101903.88;;;11.54;68.77
73981;BME280;62348;51.412;5.436;2022-11-13T13:28:01;101884.91;;;11.54;69.31
73981;BME280;62348;51.412;5.436;2022-11-13T13:30:30;101887.84;;;11.52;69.05
73981;BME280;62348;51.412;5.436;2022-11-13T13:33:19;101881.97;;;11.56;69.66
73981;BME280;62348;51.412;5.436;2022-11-13T13:36:14;101870.63;;;11.59;69.66
73981;BME280;62348;51.412;5.436;2022-11-13T13:39:18;101870.41;;;11.60;69.41
73981;BME280;62348;51.412;5.436;2022-11-13T13:46:51;101864.00;;;11.66;68.16
73981;BME280;62348;51.412;5.436;2022-11-13T13:49:21;101854.47;;;11.64;67.36
73981;BME280;62348;51.412;5.436;2022-11-13T13:51:50;101849.53;;;11.61;66.72
73981;BME280;62348;51.412;5.436;2022-11-13T13:54:21;101852.69;;;11.69;65.07
73981;BME280;62348;51.412;5.436;2022-11-13T13:56:47;101863.28;;;11.71;66.63
73981;BME280;62348;51.412;5.436;2022-11-13T13:59:33;101864.03;;;11.83;65.74
73981;BME280;62348;51.412;5.436;2022-11-13T14:02:01;101858.84;;;11.82;63.43
73981;BME280;62348;51.412;5.436;2022-11-13T14:04:32;101856.78;;;11.72;65.67
73981;BME280;62348;51.412;5.436;2022-11-13T14:06:59;101865.19;;;11.70;66.52
73981;BME280;62348;51.412;5.436;2022-11-13T14:09:26;101863.53;;;11.69;65.05
73981;BME280;62348;51.412;5.436;2022-11-13T14:12:01;101862.47;;;11.70;65.72
73981;BME280;62348;51.412;5.436;2022-11-13T14:14:27;101863.97;;;11.78;63.51
73981;BME280;62348;51.412;5.436;2022-11-13T14:16:56;101859.13;;;11.80;64.56
73981;BME280;62348;51.412;5.436;2022-11-13T14:19:23;101852.63;;;11.81;64.08
73981;BME280;62348;51.412;5.436;2022-11-13T14:21:53;101845.72;;;11.73;65.94
73981;BME280;62348;51.412;5.436;2022-11-13T14:26:49;101845.38;;;11.70;66.09